Kaministiqua — CFN4612 — position and weather

sailwx.info

Track history (hours):
 
Tides and Currents Weather Stations Pressure Air Temp Water Temp Dewpoint Dewpoint Depression Visibility Wind Speed Wind Dir Waves Ship Positions

Kaministiqua

Last reported at 2018-Apr-18 20:19 UTC. Time now 2018-Apr-21 15:37 UTC.
Position N 45°39' W 083°32'.

Length 223 m; draft 7.1 m.

Type: Cargo ship. MMSI: 316009457.

Date/timePositionNaut miles runAvg speedWind from/ knotsBaromVisibWave heightAir tempDewpointWater temp
2018-Apr-18 20:19N 45°39' W 083°32'412.4
2018-Apr-18 20:00N 45°35' W 083°28'  
2018-Apr-14 00:26N 45°13' W 074°18'5 9.8
2018-Apr-13 23:57N 45°14' W 074°11'7 6.2
2018-Apr-13 22:50N 45°14' W 074°01'3 7.7
2018-Apr-13 22:30N 45°15' W 073°58'3 5.6
2018-Apr-13 22:01N 45°17' W 073°56'1 1.8
2018-Apr-13 21:31N 45°18' W 073°56'1 1.6
2018-Apr-13 21:01N 45°19' W 073°55'0 0.5
2018-Apr-13 20:30N 45°19' W 073°55'2 3.9
2018-Apr-13 20:00N 45°21' W 073°53'5 9.8
2018-Apr-13 19:30N 45°24' W 073°48'4 8.1
2018-Apr-13 19:00N 45°25' W 073°42'3 5.1
2018-Apr-13 18:29N 45°24' W 073°38'3 5.3
2018-Apr-13 18:01N 45°24' W 073°35'1 1.3
2018-Apr-13 17:31N 45°24' W 073°34'1 2.1
2018-Apr-13 17:00N 45°24' W 073°32'3 5.0
2018-Apr-13 16:30N 45°26' W 073°30'37 6.1
2018-Apr-13 10:30N 46°01' W 073°11'3 6.9
2018-Apr-13 10:00N 46°03' W 073°07'0 0.7
2018-Apr-13 09:30N 46°03' W 073°07'0 0.0
2018-Apr-13 09:00N 46°03' W 073°07'0 0.0
2018-Apr-13 08:30N 46°03' W 073°07'0 0.0
2018-Apr-13 08:00N 46°03' W 073°07'0 0.0
2018-Apr-13 07:30N 46°03' W 073°07'0 0.0
2018-Apr-13 04:00N 46°03' W 073°07'0 0.0
2018-Apr-13 03:27N 46°03' W 073°07'0 0.0
2018-Apr-13 03:00N 46°03' W 073°07'0 0.0
2018-Apr-13 02:30N 46°03' W 073°07'0 0.0
2018-Apr-13 02:00N 46°03' W 073°07'0 0.0
2018-Apr-13 01:30N 46°03' W 073°07'0 0.0
2018-Apr-13 01:00N 46°03' W 073°07'0 0.0
2018-Apr-13 00:30N 46°03' W 073°07'0 0.0
2018-Apr-13 00:00N 46°03' W 073°07'0 0.0
2018-Apr-12 23:30N 46°03' W 073°07'0 0.0
2018-Apr-12 23:00N 46°03' W 073°07'0 0.0
2018-Apr-12 22:30N 46°03' W 073°07'0 0.0
2018-Apr-12 22:00N 46°03' W 073°07'0 0.0
2018-Apr-12 21:30N 46°03' W 073°07'0 0.0
2018-Apr-12 21:00N 46°03' W 073°07'0 0.0
2018-Apr-12 20:30N 46°03' W 073°07'0 0.0
2018-Apr-12 20:00N 46°03' W 073°07'0 0.0
2018-Apr-12 19:30N 46°03' W 073°07'0 0.0
2018-Apr-12 19:00N 46°03' W 073°07'0 0.0
2018-Apr-12 18:24N 46°03' W 073°07'0 0.0
2018-Apr-12 18:00N 46°03' W 073°07'0 0.0
2018-Apr-12 17:30N 46°03' W 073°07'0 0.0
2018-Apr-12 16:57N 46°03' W 073°07'0 0.0
2018-Apr-12 16:30N 46°03' W 073°07'0 0.0
2018-Apr-12 16:00N 46°03' W 073°07'0 0.0
2018-Apr-12 15:30N 46°03' W 073°07'0 0.0
2018-Apr-12 15:00N 46°03' W 073°07'0 0.0
2018-Apr-12 14:30N 46°03' W 073°07'0 0.0
2018-Apr-12 14:00N 46°03' W 073°07'0 0.0
2018-Apr-12 13:30N 46°03' W 073°07'0 0.0
2018-Apr-12 13:00N 46°03' W 073°07'0 0.0
2018-Apr-12 12:30N 46°03' W 073°07'0 0.0
2018-Apr-12 12:00N 46°03' W 073°07'0 0.0
2018-Apr-12 11:30N 46°03' W 073°07'0 0.0
2018-Apr-12 11:00N 46°03' W 073°07'0 0.0
2018-Apr-12 10:30N 46°03' W 073°07'0 0.0
2018-Apr-12 10:00N 46°03' W 073°07'0 0.0
2018-Apr-12 09:30N 46°03' W 073°07'0 0.0
2018-Apr-12 08:57N 46°03' W 073°07'0 0.0
2018-Apr-12 08:30N 46°03' W 073°07'0 0.0
2018-Apr-12 08:00N 46°03' W 073°07'0 0.0
2018-Apr-12 07:27N 46°03' W 073°07'0 0.0
2018-Apr-12 07:00N 46°03' W 073°07'0 0.0
2018-Apr-12 06:30N 46°03' W 073°07'0 0.0
2018-Apr-12 06:00N 46°03' W 073°07'0 0.0
2018-Apr-12 05:30N 46°03' W 073°07'0 0.0
2018-Apr-12 04:57N 46°03' W 073°07'0 0.0
2018-Apr-12 04:30N 46°03' W 073°07'0 0.0
2018-Apr-12 04:00N 46°03' W 073°07'0 0.0
2018-Apr-12 03:30N 46°03' W 073°07'0 0.0
2018-Apr-12 03:00N 46°03' W 073°07'0 0.0
2018-Apr-12 02:30N 46°03' W 073°07'0 0.0
2018-Apr-12 02:00N 46°03' W 073°07'0 0.0
2018-Apr-12 01:30N 46°03' W 073°07'0 0.0
2018-Apr-12 00:57N 46°03' W 073°07'0 0.0
2018-Apr-12 00:30N 46°03' W 073°07'0 0.0
2018-Apr-12 00:00N 46°03' W 073°07'0 0.0
2018-Apr-11 23:30N 46°03' W 073°07'0 0.0
2018-Apr-11 23:00N 46°03' W 073°07'0 0.0
2018-Apr-11 22:30N 46°03' W 073°07'0 0.0
2018-Apr-11 22:00N 46°03' W 073°07'0 0.0
2018-Apr-11 21:30N 46°03' W 073°07'0 0.0
2018-Apr-11 21:00N 46°03' W 073°07'0 0.0
2018-Apr-11 20:30N 46°03' W 073°07'0 0.0
2018-Apr-11 19:57N 46°03' W 073°07'0 0.0
2018-Apr-11 19:30N 46°03' W 073°07'0 0.0
2018-Apr-11 19:00N 46°03' W 073°07'0 0.0
2018-Apr-11 18:30N 46°03' W 073°07'0 0.0
2018-Apr-11 18:00N 46°03' W 073°07'0 0.0
2018-Apr-11 17:30N 46°03' W 073°07'0 0.0
2018-Apr-11 17:00N 46°03' W 073°07'0 0.0
2018-Apr-11 16:30N 46°03' W 073°07'0 0.0
2018-Apr-11 16:00N 46°03' W 073°07'0 0.0
2018-Apr-11 15:27N 46°03' W 073°07'0 0.0
2018-Apr-11 15:00N 46°03' W 073°07'0 0.0
2018-Apr-11 14:30N 46°03' W 073°07'0 0.0
2018-Apr-11 14:00N 46°03' W 073°07'0 0.0
2018-Apr-11 13:30N 46°03' W 073°07'0 0.0
2018-Apr-11 12:57N 46°03' W 073°07'0 0.0
2018-Apr-11 12:30N 46°03' W 073°07'0 0.0
2018-Apr-11 11:57N 46°03' W 073°07'0 0.0
2018-Apr-11 11:30N 46°03' W 073°07'0 0.0
2018-Apr-11 10:27N 46°03' W 073°07'0 0.0
2018-Apr-11 10:00N 46°03' W 073°07'0 0.0
2018-Apr-11 09:31N 46°03' W 073°07'0 0.0
2018-Apr-11 09:01N 46°03' W 073°07'0 0.0
2018-Apr-11 08:30N 46°03' W 073°07'0 0.0
2018-Apr-11 08:00N 46°03' W 073°07'0 0.0
2018-Apr-11 07:31N 46°03' W 073°07'0 0.0
2018-Apr-11 07:00N 46°03' W 073°07'0 0.0
2018-Apr-11 06:30N 46°03' W 073°07'0 0.0
2018-Apr-11 06:01N 46°03' W 073°07'0 0.0
2018-Apr-11 05:30N 46°03' W 073°07'0 0.0
2018-Apr-11 05:01N 46°03' W 073°07'0 0.0
2018-Apr-11 04:30N 46°03' W 073°07'0 0.0
2018-Apr-11 04:00N 46°03' W 073°07'0 0.0
2018-Apr-11 03:31N 46°03' W 073°07'0 0.0
2018-Apr-11 03:01N 46°03' W 073°07'0 0.0
2018-Apr-11 02:30N 46°03' W 073°07'0 0.0
2018-Apr-11 02:00N 46°03' W 073°07'0 0.0
2018-Apr-11 01:30N 46°03' W 073°07'0 0.0
2018-Apr-11 01:00N 46°03' W 073°07'0 0.0
2018-Apr-11 00:30N 46°03' W 073°07'0 0.0
2018-Apr-10 23:59N 46°03' W 073°07'0 0.0
2018-Apr-10 23:30N 46°03' W 073°07'0 0.0
2018-Apr-10 23:01N 46°03' W 073°07'36 3.9
2018-Apr-10 13:48N 45°32' W 073°32'2 6.4
2018-Apr-10 13:31N 45°30' W 073°31'0 1.0
2018-Apr-10 13:00N 45°30' W 073°31'1 1.1
2018-Apr-10 12:31N 45°29' W 073°31'2 4.5
2018-Apr-10 12:00N 45°27' W 073°30'3 5.5
2018-Apr-10 11:30N 45°24' W 073°32'1 2.7
2018-Apr-10 11:01N 45°24' W 073°34'0 0.4
2018-Apr-10 10:30N 45°24' W 073°34'2 3.4
2018-Apr-10 10:00N 45°24' W 073°37'3 5.5
2018-Apr-10 09:30N 45°25' W 073°40'3 6.6
2018-Apr-10 09:00N 45°24' W 073°45'611.2
2018-Apr-10 08:30N 45°21' W 073°52'3 6.5
2018-Apr-10 08:00N 45°19' W 073°55'0 0.4
2018-Apr-10 07:30N 45°19' W 073°55'1 1.2
2018-Apr-10 07:00N 45°18' W 073°56'0 0.0
2018-Apr-10 06:30N 45°18' W 073°56'0 0.9
2018-Apr-10 06:00N 45°18' W 073°56'2 3.7
2018-Apr-10 05:30N 45°16' W 073°57'4 7.8
2018-Apr-10 05:00N 45°14' W 074°01'4 8.1
2018-Apr-10 04:29N 45°14' W 074°07'  
Track history (hours):
 
Tides and Currents Weather Stations Pressure Air Temp Water Temp Dewpoint Dewpoint Depression Visibility Wind Speed Wind Dir Waves Ship Positions

Kaministiqua

Last reported at 2018-Apr-18 20:19 UTC. Time now 2018-Apr-21 15:37 UTC.
Position N 45°39' W 083°32'.

Length 223 m; draft 7.1 m.

Type: Cargo ship. MMSI: 316009457.

Date/timePositionNaut miles runAvg speedWind from/ knotsBaromVisibWave heightAir tempDewpointWater temp
2018-Apr-18 20:19N 45°39' W 083°32'412.4
2018-Apr-18 20:00N 45°35' W 083°28'  
2018-Apr-14 00:26N 45°13' W 074°18'5 9.8
2018-Apr-13 23:57N 45°14' W 074°11'7 6.2
2018-Apr-13 22:50N 45°14' W 074°01'3 7.7
2018-Apr-13 22:30N 45°15' W 073°58'3 5.6
2018-Apr-13 22:01N 45°17' W 073°56'1 1.8
2018-Apr-13 21:31N 45°18' W 073°56'1 1.6
2018-Apr-13 21:01N 45°19' W 073°55'0 0.5
2018-Apr-13 20:30N 45°19' W 073°55'2 3.9
2018-Apr-13 20:00N 45°21' W 073°53'5 9.8
2018-Apr-13 19:30N 45°24' W 073°48'4 8.1
2018-Apr-13 19:00N 45°25' W 073°42'3 5.1
2018-Apr-13 18:29N 45°24' W 073°38'3 5.3
2018-Apr-13 18:01N 45°24' W 073°35'1 1.3
2018-Apr-13 17:31N 45°24' W 073°34'1 2.1
2018-Apr-13 17:00N 45°24' W 073°32'3 5.0
2018-Apr-13 16:30N 45°26' W 073°30'37 6.1
2018-Apr-13 10:30N 46°01' W 073°11'3 6.9
2018-Apr-13 10:00N 46°03' W 073°07'0 0.7
2018-Apr-13 09:30N 46°03' W 073°07'0 0.0
2018-Apr-13 09:00N 46°03' W 073°07'0 0.0
2018-Apr-13 08:30N 46°03' W 073°07'0 0.0
2018-Apr-13 08:00N 46°03' W 073°07'0 0.0
2018-Apr-13 07:30N 46°03' W 073°07'0 0.0
2018-Apr-13 04:00N 46°03' W 073°07'0 0.0
2018-Apr-13 03:27N 46°03' W 073°07'0 0.0
2018-Apr-13 03:00N 46°03' W 073°07'0 0.0
2018-Apr-13 02:30N 46°03' W 073°07'0 0.0
2018-Apr-13 02:00N 46°03' W 073°07'0 0.0
2018-Apr-13 01:30N 46°03' W 073°07'0 0.0
2018-Apr-13 01:00N 46°03' W 073°07'0 0.0
2018-Apr-13 00:30N 46°03' W 073°07'0 0.0
2018-Apr-13 00:00N 46°03' W 073°07'0 0.0
2018-Apr-12 23:30N 46°03' W 073°07'0 0.0
2018-Apr-12 23:00N 46°03' W 073°07'0 0.0
2018-Apr-12 22:30N 46°03' W 073°07'0 0.0
2018-Apr-12 22:00N 46°03' W 073°07'0 0.0
2018-Apr-12 21:30N 46°03' W 073°07'0 0.0
2018-Apr-12 21:00N 46°03' W 073°07'0 0.0
2018-Apr-12 20:30N 46°03' W 073°07'0 0.0
2018-Apr-12 20:00N 46°03' W 073°07'0 0.0
2018-Apr-12 19:30N 46°03' W 073°07'0 0.0
2018-Apr-12 19:00N 46°03' W 073°07'0 0.0
2018-Apr-12 18:24N 46°03' W 073°07'0 0.0
2018-Apr-12 18:00N 46°03' W 073°07'0 0.0
2018-Apr-12 17:30N 46°03' W 073°07'0 0.0
2018-Apr-12 16:57N 46°03' W 073°07'0 0.0
2018-Apr-12 16:30N 46°03' W 073°07'0 0.0
2018-Apr-12 16:00N 46°03' W 073°07'0 0.0
2018-Apr-12 15:30N 46°03' W 073°07'0 0.0
2018-Apr-12 15:00N 46°03' W 073°07'0 0.0
2018-Apr-12 14:30N 46°03' W 073°07'0 0.0
2018-Apr-12 14:00N 46°03' W 073°07'0 0.0
2018-Apr-12 13:30N 46°03' W 073°07'0 0.0
2018-Apr-12 13:00N 46°03' W 073°07'0 0.0
2018-Apr-12 12:30N 46°03' W 073°07'0 0.0
2018-Apr-12 12:00N 46°03' W 073°07'0 0.0
2018-Apr-12 11:30N 46°03' W 073°07'0 0.0
2018-Apr-12 11:00N 46°03' W 073°07'0 0.0
2018-Apr-12 10:30N 46°03' W 073°07'0 0.0
2018-Apr-12 10:00N 46°03' W 073°07'0 0.0
2018-Apr-12 09:30N 46°03' W 073°07'0 0.0
2018-Apr-12 08:57N 46°03' W 073°07'0 0.0
2018-Apr-12 08:30N 46°03' W 073°07'0 0.0
2018-Apr-12 08:00N 46°03' W 073°07'0 0.0
2018-Apr-12 07:27N 46°03' W 073°07'0 0.0
2018-Apr-12 07:00N 46°03' W 073°07'0 0.0
2018-Apr-12 06:30N 46°03' W 073°07'0 0.0
2018-Apr-12 06:00N 46°03' W 073°07'0 0.0
2018-Apr-12 05:30N 46°03' W 073°07'0 0.0
2018-Apr-12 04:57N 46°03' W 073°07'0 0.0
2018-Apr-12 04:30N 46°03' W 073°07'0 0.0
2018-Apr-12 04:00N 46°03' W 073°07'0 0.0
2018-Apr-12 03:30N 46°03' W 073°07'0 0.0
2018-Apr-12 03:00N 46°03' W 073°07'0 0.0
2018-Apr-12 02:30N 46°03' W 073°07'0 0.0
2018-Apr-12 02:00N 46°03' W 073°07'0 0.0
2018-Apr-12 01:30N 46°03' W 073°07'0 0.0
2018-Apr-12 00:57N 46°03' W 073°07'0 0.0
2018-Apr-12 00:30N 46°03' W 073°07'0 0.0
2018-Apr-12 00:00N 46°03' W 073°07'0 0.0
2018-Apr-11 23:30N 46°03' W 073°07'0 0.0
2018-Apr-11 23:00N 46°03' W 073°07'0 0.0
2018-Apr-11 22:30N 46°03' W 073°07'0 0.0
2018-Apr-11 22:00N 46°03' W 073°07'0 0.0
2018-Apr-11 21:30N 46°03' W 073°07'0 0.0
2018-Apr-11 21:00N 46°03' W 073°07'0 0.0
2018-Apr-11 20:30N 46°03' W 073°07'0 0.0
2018-Apr-11 19:57N 46°03' W 073°07'0 0.0
2018-Apr-11 19:30N 46°03' W 073°07'0 0.0
2018-Apr-11 19:00N 46°03' W 073°07'0 0.0
2018-Apr-11 18:30N 46°03' W 073°07'0 0.0
2018-Apr-11 18:00N 46°03' W 073°07'0 0.0
2018-Apr-11 17:30N 46°03' W 073°07'0 0.0
2018-Apr-11 17:00N 46°03' W 073°07'0 0.0
2018-Apr-11 16:30N 46°03' W 073°07'0 0.0
2018-Apr-11 16:00N 46°03' W 073°07'0 0.0
2018-Apr-11 15:27N 46°03' W 073°07'0 0.0
2018-Apr-11 15:00N 46°03' W 073°07'0 0.0
2018-Apr-11 14:30N 46°03' W 073°07'0 0.0
2018-Apr-11 14:00N 46°03' W 073°07'0 0.0
2018-Apr-11 13:30N 46°03' W 073°07'0 0.0
2018-Apr-11 12:57N 46°03' W 073°07'0 0.0
2018-Apr-11 12:30N 46°03' W 073°07'0 0.0
2018-Apr-11 11:57N 46°03' W 073°07'0 0.0
2018-Apr-11 11:30N 46°03' W 073°07'0 0.0
2018-Apr-11 10:27N 46°03' W 073°07'0 0.0
2018-Apr-11 10:00N 46°03' W 073°07'0 0.0
2018-Apr-11 09:31N 46°03' W 073°07'0 0.0
2018-Apr-11 09:01N 46°03' W 073°07'0 0.0
2018-Apr-11 08:30N 46°03' W 073°07'0 0.0
2018-Apr-11 08:00N 46°03' W 073°07'0 0.0
2018-Apr-11 07:31N 46°03' W 073°07'0 0.0
2018-Apr-11 07:00N 46°03' W 073°07'0 0.0
2018-Apr-11 06:30N 46°03' W 073°07'0 0.0
2018-Apr-11 06:01N 46°03' W 073°07'0 0.0
2018-Apr-11 05:30N 46°03' W 073°07'0 0.0
2018-Apr-11 05:01N 46°03' W 073°07'0 0.0
2018-Apr-11 04:30N 46°03' W 073°07'0 0.0
2018-Apr-11 04:00N 46°03' W 073°07'0 0.0
2018-Apr-11 03:31N 46°03' W 073°07'0 0.0
2018-Apr-11 03:01N 46°03' W 073°07'0 0.0
2018-Apr-11 02:30N 46°03' W 073°07'0 0.0
2018-Apr-11 02:00N 46°03' W 073°07'0 0.0
2018-Apr-11 01:30N 46°03' W 073°07'0 0.0
2018-Apr-11 01:00N 46°03' W 073°07'0 0.0
2018-Apr-11 00:30N 46°03' W 073°07'0 0.0
2018-Apr-10 23:59N 46°03' W 073°07'0 0.0
2018-Apr-10 23:30N 46°03' W 073°07'0 0.0
2018-Apr-10 23:01N 46°03' W 073°07'36 3.9
2018-Apr-10 13:48N 45°32' W 073°32'2 6.4
2018-Apr-10 13:31N 45°30' W 073°31'0 1.0
2018-Apr-10 13:00N 45°30' W 073°31'1 1.1
2018-Apr-10 12:31N 45°29' W 073°31'2 4.5
2018-Apr-10 12:00N 45°27' W 073°30'3 5.5
2018-Apr-10 11:30N 45°24' W 073°32'1 2.7
2018-Apr-10 11:01N 45°24' W 073°34'0 0.4
2018-Apr-10 10:30N 45°24' W 073°34'2 3.4
2018-Apr-10 10:00N 45°24' W 073°37'3 5.5
2018-Apr-10 09:30N 45°25' W 073°40'3 6.6
2018-Apr-10 09:00N 45°24' W 073°45'611.2
2018-Apr-10 08:30N 45°21' W 073°52'3 6.5
2018-Apr-10 08:00N 45°19' W 073°55'0 0.4
2018-Apr-10 07:30N 45°19' W 073°55'1 1.2
2018-Apr-10 07:00N 45°18' W 073°56'0 0.0
2018-Apr-10 06:30N 45°18' W 073°56'0 0.9
2018-Apr-10 06:00N 45°18' W 073°56'2 3.7
2018-Apr-10 05:30N 45°16' W 073°57'4 7.8
2018-Apr-10 05:00N 45°14' W 074°01'4 8.1
2018-Apr-10 04:29N 45°14' W 074°07'  

Dump ship's entire track history